Time;durP1;ratioP1;P1;durP2;ratioP2;P2;SDS_P1;SDS_P2;PMS_P1;PMS_P2;Temp;Humidity;BMP_temperature;BMP_pressure;BME280_temperature;BME280_humidity;BME280_pressure;Samples;Min_cycle;Max_cycle;Signal;HPM_P1;HPM_P2
2024/04/19 00:01:07;;;;;;;41.03;21.70;;;1.20;1.00;;;;;;5536554;25;20264;-66
2024/04/19 00:03:57;;;;;;;44.67;21.37;;;1.30;1.00;;;;;;5530741;25;20706;-67
2024/04/19 00:06:46;;;;;;;31.43;15.60;;;1.40;1.00;;;;;;5543054;25;20306;-66
2024/04/19 00:09:33;;;;;;;36.93;17.97;;;1.40;1.00;;;;;;5551069;25;20816;-66
2024/04/19 00:12:22;;;;;;;48.10;23.43;;;1.50;1.00;;;;;;5531568;25;20222;-66
2024/04/19 00:15:09;;;;;;;41.97;22.20;;;1.50;1.00;;;;;;5518201;25;20224;-66
2024/04/19 00:17:58;;;;;;;41.27;19.60;;;1.50;1.00;;;;;;5521097;25;20223;-66
2024/04/19 00:20:48;;;;;;;41.67;23.13;;;1.50;1.00;;;;;;5533683;25;20230;-66
2024/04/19 00:23:38;;;;;;;36.73;19.50;;;1.40;1.00;;;;;;5529558;25;20836;-66
2024/04/19 00:26:25;;;;;;;36.73;20.07;;;1.50;1.00;;;;;;5525789;25;20220;-66
2024/04/19 00:29:14;;;;;;;41.50;21.20;;;1.50;1.00;;;;;;5495707;26;20223;-66
2024/04/19 00:32:01;;;;;;;19.03;9.50;;;1.50;1.00;;;;;;5519466;25;20239;-66
2024/04/19 00:34:50;;;;;;;33.80;16.97;;;1.40;1.00;;;;;;5519516;25;20269;-66
2024/04/19 00:37:40;;;;;;;33.57;16.73;;;1.40;1.00;;;;;;5531362;25;20338;-66
2024/04/19 00:40:29;;;;;;;31.87;15.27;;;1.40;1.00;;;;;;5545898;25;20231;-67
2024/04/19 00:43:16;;;;;;;28.70;14.53;;;1.30;1.00;;;;;;5523595;25;20940;-67
2024/04/19 00:46:06;;;;;;;25.97;14.00;;;1.30;1.00;;;;;;5535909;25;20298;-66
2024/04/19 00:48:53;;;;;;;27.87;13.90;;;1.20;1.00;;;;;;5521139;25;20227;-66
2024/04/19 00:51:42;;;;;;;26.60;13.53;;;1.20;1.00;;;;;;5522957;25;20866;-67
2024/04/19 00:54:32;;;;;;;23.37;12.57;;;1.10;1.00;;;;;;5538762;25;21006;-66
2024/04/19 00:57:21;;;;;;;25.60;12.23;;;1.00;1.00;;;;;;5555012;25;20222;-67
2024/04/19 01:00:10;;;;;;;22.33;12.87;;;1.00;1.00;;;;;;5520394;25;20273;-67
2024/04/19 01:02:59;;;;;;;25.13;12.77;;;1.00;1.00;;;;;;5538794;25;20218;-66
2024/04/19 01:05:46;;;;;;;26.47;12.80;;;1.00;1.00;;;;;;5530552;25;20749;-67
2024/04/19 01:08:35;;;;;;;24.73;12.17;;;0.90;1.00;;;;;;5541359;25;20277;-67
2024/04/19 01:11:24;;;;;;;23.23;12.17;;;0.80;1.00;;;;;;5541305;25;20268;-67
2024/04/19 01:14:14;;;;;;;26.17;12.90;;;0.80;1.00;;;;;;5564112;25;20327;-67
2024/04/19 01:17:03;;;;;;;31.20;15.10;;;0.80;1.00;;;;;;5545878;25;20337;-67
2024/04/19 01:19:50;;;;;;;43.50;21.80;;;0.80;1.00;;;;;;5541774;25;20296;-67
2024/04/19 01:22:39;;;;;;;41.27;20.97;;;0.80;1.00;;;;;;5568257;25;20799;-67
2024/04/19 01:25:30;;;;;;;51.43;25.53;;;0.90;1.00;;;;;;5544524;25;20293;-67
2024/04/19 01:28:22;;;;;;;50.43;26.70;;;0.90;1.00;;;;;;5545813;25;20775;-67
2024/04/19 01:31:08;;;;;;;43.53;19.07;;;0.80;1.00;;;;;;5536667;25;20726;-67
2024/04/19 01:33:58;;;;;;;45.43;21.40;;;0.80;1.00;;;;;;5530474;25;20694;-67
2024/04/19 01:36:44;;;;;;;38.03;17.10;;;0.80;1.00;;;;;;5535779;25;20230;-66
2024/04/19 01:39:34;;;;;;;50.90;26.60;;;0.90;1.00;;;;;;5524982;25;20285;-67
2024/04/19 01:42:21;;;;;;;51.23;25.47;;;0.80;1.00;;;;;;5532033;25;20329;-67
2024/04/19 01:45:13;;;;;;;57.37;28.40;;;0.80;1.00;;;;;;5520923;25;20270;-67
2024/04/19 01:48:02;;;;;;;56.43;28.17;;;0.80;5.80;;;;;;5529225;25;20287;-66
2024/04/19 01:50:52;;;;;;;59.80;28.77;;;0.80;9.10;;;;;;5538441;25;20303;-67
2024/04/19 01:53:38;;;;;;;51.37;21.53;;;0.70;20.20;;;;;;5522581;25;20858;-68
2024/04/19 01:56:28;;;;;;;74.80;32.93;;;0.70;35.40;;;;;;5517492;25;20337;-67
2024/04/19 01:59:15;;;;;;;69.13;32.63;;;0.70;51.10;;;;;;5520036;25;20695;-67
2024/04/19 02:02:07;;;;;;;34.50;12.77;;;0.60;62.20;;;;;;5540635;25;20219;-66
2024/04/19 02:04:53;;;;;;;62.20;27.93;;;0.60;96.90;;;;;;5533825;25;20725;-67
2024/04/19 02:07:43;;;;;;;77.83;31.13;;;0.60;99.20;;;;;;5552937;25;20252;-66
2024/04/19 02:10:29;;;;;;;88.17;34.07;;;0.60;99.90;;;;;;5534463;25;20227;-68
2024/04/19 02:13:19;;;;;;;79.80;35.17;;;0.60;99.90;;;;;;5562906;25;20270;-68
2024/04/19 02:16:06;;;;;;;29.73;9.87;;;0.60;99.90;;;;;;5536092;25;20238;-68
2024/04/19 02:18:58;;;;;;;110.33;41.57;;;0.60;99.90;;;;;;5549893;25;20272;-65
2024/04/19 02:21:45;;;;;;;47.97;19.37;;;0.60;99.90;;;;;;5548062;25;20234;-67
2024/04/19 02:24:35;;;;;;;85.10;35.63;;;0.60;99.90;;;;;;5561649;25;20335;-67
2024/04/19 02:33:35;;;;;;;155.40;37.63;;;0.50;99.90;;;;;;5540441;25;20229;-68
2024/04/19 02:36:27;;;;;;;109.20;25.60;;;0.50;99.90;;;;;;5544041;25;20333;-68
2024/04/19 02:39:17;;;;;;;48.03;16.97;;;0.40;99.90;;;;;;5555905;25;20231;-67
2024/04/19 02:42:07;;;;;;;134.30;34.40;;;0.50;99.90;;;;;;5545692;25;20711;-68
2024/04/19 02:44:56;;;;;;;138.80;41.63;;;0.40;99.90;;;;;;5542635;25;20636;-67
2024/04/19 02:47:45;;;;;;;153.17;43.90;;;0.40;99.90;;;;;;5554730;25;20230;-68
2024/04/19 02:50:35;;;;;;;85.07;18.93;;;0.50;99.90;;;;;;5538191;25;20687;-68
2024/04/19 02:53:27;;;;;;;107.83;35.23;;;0.50;99.90;;;;;;5523352;25;20709;-68
2024/04/19 02:56:16;;;;;;;140.83;40.87;;;0.40;99.90;;;;;;5547981;25;20231;-68
2024/04/19 02:59:05;;;;;;;83.10;16.50;;;0.40;99.90;;;;;;5529957;25;20738;-67
2024/04/19 03:01:55;;;;;;;136.93;39.07;;;0.50;99.90;;;;;;5547001;25;20295;-67
2024/04/19 03:04:45;;;;;;;169.07;40.87;;;0.50;99.90;;;;;;5550658;25;20234;-67
2024/04/19 03:07:34;;;;;;;125.77;33.50;;;0.40;99.90;;;;;;5537305;25;20227;-68
2024/04/19 03:10:26;;;;;;;162.53;41.03;;;0.40;99.90;;;;;;5523566;25;20219;-68
2024/04/19 03:13:16;;;;;;;269.63;50.13;;;0.40;99.90;;;;;;5530225;25;20284;-68
2024/04/19 03:16:07;;;;;;;166.00;40.10;;;0.40;99.90;;;;;;5519301;25;20258;-68
2024/04/19 03:18:56;;;;;;;79.03;20.47;;;0.30;99.90;;;;;;5538949;25;20932;-68
2024/04/19 03:21:45;;;;;;;141.80;41.80;;;0.40;99.90;;;;;;5521604;25;20223;-67
2024/04/19 03:24:35;;;;;;;194.97;43.10;;;0.40;99.90;;;;;;5528059;25;20307;-67
2024/04/19 03:27:27;;;;;;;302.70;47.33;;;0.50;99.90;;;;;;5545729;25;20333;-68
2024/04/19 03:30:26;;;;;;;378.73;48.40;;;0.40;99.90;;;;;;5526798;25;20314;-67
2024/04/19 03:33:16;;;;;;;272.80;48.93;;;0.40;99.90;;;;;;5534119;25;20804;-67
2024/04/19 03:36:07;;;;;;;132.10;35.10;;;0.40;99.90;;;;;;5525724;25;20316;-67
2024/04/19 03:38:56;;;;;;;127.40;33.60;;;0.40;99.90;;;;;;5547932;25;20578;-67
2024/04/19 03:41:47;;;;;;;76.33;22.87;;;0.50;99.90;;;;;;5513419;25;20549;-67
2024/04/19 03:47:43;;;;;;;129.57;38.10;;;0.40;99.90;;;;;;5517705;25;20227;-67
2024/04/19 03:50:32;;;;;;;194.80;44.47;;;0.40;99.90;;;;;;5522838;25;20719;-67
2024/04/19 03:53:22;;;;;;;98.37;23.93;;;0.40;99.90;;;;;;5540123;25;20281;-67
2024/04/19 03:56:11;;;;;;;156.83;43.30;;;0.40;99.90;;;;;;5520677;25;20300;-67
2024/04/19 03:59:01;;;;;;;136.10;41.80;;;0.50;99.90;;;;;;5535946;25;20222;-67
2024/04/19 04:01:53;;;;;;;189.83;39.60;;;0.50;99.90;;;;;;5539819;25;20310;-67
2024/04/19 04:04:42;;;;;;;163.83;43.87;;;0.50;99.90;;;;;;5515284;26;20642;-67
2024/04/19 04:07:32;;;;;;;258.97;47.23;;;0.50;99.90;;;;;;5544494;25;20290;-68
2024/04/19 04:10:21;;;;;;;366.10;52.90;;;0.60;99.90;;;;;;5535694;25;20287;-67
2024/04/19 04:13:10;;;;;;;249.40;50.93;;;0.50;99.90;;;;;;5554976;25;20269;-67
2024/04/19 04:16:00;;;;;;;191.33;47.00;;;0.50;99.90;;;;;;5543027;25;20223;-67
2024/04/19 04:18:52;;;;;;;171.80;42.17;;;0.60;99.90;;;;;;5546123;25;20227;-67
2024/04/19 04:21:41;;;;;;;112.17;31.70;;;0.70;99.90;;;;;;5546639;25;20231;-67
2024/04/19 04:24:31;;;;;;;125.13;39.27;;;0.60;99.90;;;;;;5528841;25;20334;-67
2024/04/19 04:27:20;;;;;;;150.53;48.13;;;0.60;99.90;;;;;;5540947;25;20749;-67
2024/04/19 04:30:11;;;;;;;124.30;44.30;;;0.60;99.90;;;;;;5544060;25;20234;-67
2024/04/19 04:33:00;;;;;;;86.47;36.83;;;0.60;99.90;;;;;;5523636;25;20299;-67
2024/04/19 04:35:52;;;;;;;90.70;38.40;;;0.70;99.90;;;;;;5521457;25;20239;-68
2024/04/19 04:38:42;;;;;;;85.40;36.23;;;0.70;99.90;;;;;;5535536;25;20302;-67
2024/04/19 04:41:31;;;;;;;79.97;35.77;;;0.80;99.90;;;;;;5538360;25;20735;-67
2024/04/19 04:44:20;;;;;;;71.47;33.67;;;0.80;99.90;;;;;;5532848;25;20273;-67
2024/04/19 04:47:10;;;;;;;70.20;32.00;;;1.00;99.90;;;;;;5545700;25;20277;-67
2024/04/19 04:49:59;;;;;;;65.97;32.97;;;1.00;99.90;;;;;;5554926;25;20331;-67
2024/04/19 04:52:53;;;;;;;71.40;32.80;;;1.10;99.90;;;;;;5526072;25;20338;-67
2024/04/19 04:55:42;;;;;;;73.17;33.73;;;1.10;99.90;;;;;;5519338;25;20269;-67
2024/04/19 04:58:32;;;;;;;71.67;33.17;;;1.20;99.90;;;;;;5523757;25;20236;-68
2024/04/19 05:01:22;;;;;;;67.60;33.93;;;1.20;99.90;;;;;;5526319;25;20608;-68
2024/04/19 05:04:11;;;;;;;62.60;31.23;;;1.30;99.90;;;;;;5547712;25;20665;-67
2024/04/19 05:07:00;;;;;;;63.37;30.37;;;1.40;99.90;;;;;;5520719;25;20561;-67
2024/04/19 05:09:53;;;;;;;60.67;29.57;;;1.40;99.90;;;;;;5520481;25;20333;-67
2024/04/19 05:12:42;;;;;;;67.47;30.00;;;1.50;99.90;;;;;;5540469;25;20234;-67
2024/04/19 05:15:31;;;;;;;21.33;10.03;;;1.70;99.90;;;;;;5536699;25;20235;-67
2024/04/19 05:18:21;;;;;;;49.73;24.83;;;1.70;1.00;;;;;;5544512;25;20652;-68
2024/04/19 05:21:10;;;;;;;43.43;22.87;;;1.70;1.00;;;;;;5566130;25;20331;-68
2024/04/19 05:23:59;;;;;;;20.57;9.70;;;1.70;1.00;;;;;;5559603;25;20786;-68
2024/04/19 05:26:51;;;;;;;47.73;24.80;;;1.80;1.00;;;;;;5541028;25;20286;-67
2024/04/19 05:29:41;;;;;;;52.57;29.90;;;1.90;99.90;;;;;;5533588;25;20235;-67
2024/04/19 05:32:30;;;;;;;39.50;15.77;;;1.90;99.90;;;;;;5544276;25;20230;-66
2024/04/19 05:35:19;;;;;;;15.03;7.40;;;2.10;1.00;;;;;;5542432;25;20309;-66
2024/04/19 05:38:09;;;;;;;18.30;8.30;;;2.10;1.00;;;;;;5540517;25;20222;-66
2024/04/19 05:40:58;;;;;;;19.47;8.90;;;2.20;1.00;;;;;;5534849;25;20672;-66
2024/04/19 05:43:51;;;;;;;37.33;20.93;;;2.20;1.00;;;;;;5537494;25;20227;-66
2024/04/19 05:46:40;;;;;;;35.13;18.83;;;2.50;99.90;;;;;;5550347;25;20336;-66
2024/04/19 05:49:30;;;;;;;37.93;20.83;;;3.00;1.00;;;;;;5537135;25;20228;-66
2024/04/19 05:52:19;;;;;;;34.30;17.17;;;3.30;99.90;;;;;;5543871;25;20302;-66
2024/04/19 05:55:09;;;;;;;16.87;6.23;;;3.30;99.90;;;;;;5564968;25;20631;-66
2024/04/19 05:57:58;;;;;;;18.20;8.57;;;3.20;99.90;;;;;;5543580;25;20227;-66
2024/04/19 06:00:50;;;;;;;20.27;10.10;;;3.20;1.00;;;;;;5531756;25;20268;-66
2024/04/19 06:03:39;;;;;;;29.97;16.60;;;3.30;81.60;;;;;;5544935;25;20239;-66
2024/04/19 06:06:29;;;;;;;16.47;8.47;;;3.30;99.90;;;;;;5545194;25;20670;-66
2024/04/19 06:09:19;;;;;;;26.33;10.70;;;3.40;99.90;;;;;;5535278;25;20286;-67
2024/04/19 06:12:08;;;;;;;28.47;16.47;;;3.50;99.90;;;;;;5543685;25;20270;-66
2024/04/19 06:14:58;;;;;;;30.97;15.87;;;3.70;1.00;;;;;;5533678;25;20226;-65
2024/04/19 06:17:50;;;;;;;24.30;12.90;;;3.90;1.00;;;;;;5516191;25;20227;-66
2024/04/19 06:20:42;;;;;;;23.17;10.53;;;4.00;1.00;;;;;;5535565;25;20228;-66
2024/04/19 06:23:31;;;;;;;9.97;5.07;;;3.90;1.00;;;;;;5527880;25;20223;-65
2024/04/19 06:26:20;;;;;;;23.70;9.50;;;4.10;99.90;;;;;;5522914;25;20282;-66
2024/04/19 06:29:10;;;;;;;17.77;7.80;;;4.10;1.00;;;;;;5522952;25;20340;-66
2024/04/19 06:32:00;;;;;;;11.13;3.87;;;4.10;1.00;;;;;;5553394;25;20282;-65
2024/04/19 06:34:54;;;;;;;21.50;10.40;;;4.20;99.90;;;;;;5547066;25;20340;-65
2024/04/19 06:37:43;;;;;;;18.57;8.83;;;4.00;1.00;;;;;;5531381;25;20273;-65
2024/04/19 06:40:33;;;;;;;12.53;6.10;;;3.90;1.00;;;;;;5531351;25;20275;-65
2024/04/19 06:43:22;;;;;;;17.63;9.10;;;4.10;99.90;;;;;;5536488;25;20306;-66
2024/04/19 06:46:11;;;;;;;18.87;8.77;;;4.10;1.00;;;;;;5532253;25;20274;-65
2024/04/19 06:49:01;;;;;;;10.33;4.73;;;4.50;1.00;;;;;;5546567;25;20277;-65
2024/04/19 06:51:53;;;;;;;10.30;4.50;;;4.60;99.90;;;;;;5521965;25;20466;-65
2024/04/19 06:54:42;;;;;;;15.83;6.00;;;4.80;99.90;;;;;;5529512;25;20239;-65
2024/04/19 06:57:31;;;;;;;8.03;4.13;;;5.10;99.90;;;;;;5542882;25;20331;-64
2024/04/19 07:00:21;;;;;;;5.13;2.77;;;5.30;1.00;;;;;;5548205;25;20272;-65
2024/04/19 07:03:10;;;;;;;16.63;4.90;;;5.20;1.00;;;;;;5555471;25;20222;-66
2024/04/19 07:05:59;;;;;;;9.40;4.00;;;5.40;65.30;;;;;;5516788;25;20287;-66
2024/04/19 07:08:52;;;;;;;9.40;4.47;;;5.70;1.00;;;;;;5535691;25;20609;-65
2024/04/19 07:11:41;;;;;;;6.17;3.67;;;5.90;1.00;;;;;;5567418;25;20235;-65
2024/04/19 07:14:30;;;;;;;5.87;2.27;;;5.80;99.90;;;;;;5536024;25;20223;-65
2024/04/19 07:17:20;;;;;;;5.30;2.03;;;5.60;99.90;;;;;;5548732;25;20339;-65
2024/04/19 07:20:10;;;;;;;6.50;2.83;;;5.90;99.90;;;;;;5545219;25;20227;-65
2024/04/19 07:22:59;;;;;;;8.70;2.27;;;6.00;99.90;;;;;;5549421;25;20231;-66
2024/04/19 07:25:51;;;;;;;5.33;2.87;;;6.00;99.90;;;;;;5546340;25;20271;-66
2024/04/19 07:28:41;;;;;;;4.13;2.13;;;6.30;99.90;;;;;;5537641;25;20334;-66
2024/04/19 07:31:30;;;;;;;4.10;2.30;;;6.60;8.10;;;;;;5529606;25;20295;-65
2024/04/19 07:34:21;;;;;;;5.87;2.37;;;6.70;1.00;;;;;;5533875;25;20276;-66
2024/04/19 07:37:10;;;;;;;5.57;2.03;;;6.70;89.30;;;;;;5547634;25;20230;-65
2024/04/19 07:39:59;;;;;;;2.33;1.50;;;7.20;18.00;;;;;;5538959;25;20679;-66
2024/04/19 07:42:51;;;;;;;3.00;1.83;;;7.40;1.00;;;;;;5544093;25;20311;-66
2024/04/19 07:45:41;;;;;;;1.03;0.87;;;7.70;1.00;;;;;;5556929;25;20235;-65
2024/04/19 07:48:31;;;;;;;2.83;1.73;;;7.90;1.00;;;;;;5533185;25;20798;-65
2024/04/19 07:51:20;;;;;;;1.30;1.00;;;7.80;1.00;;;;;;5527723;25;20333;-64
2024/04/19 07:54:10;;;;;;;8.20;2.50;;;7.40;1.00;;;;;;5522891;25;20234;-64
2024/04/19 07:56:59;;;;;;;4.70;0.80;;;7.20;1.00;;;;;;5512265;25;20340;-66
2024/04/19 07:59:51;;;;;;;2.57;2.00;;;7.30;1.00;;;;;;5524822;25;20290;-65
2024/04/19 08:02:40;;;;;;;2.97;1.60;;;7.80;1.00;;;;;;5528439;25;20333;-65
2024/04/19 08:05:30;;;;;;;5.57;2.30;;;8.20;1.00;;;;;;5524900;25;20279;-65
2024/04/19 08:08:19;;;;;;;3.70;1.40;;;8.40;1.00;;;;;;5540856;25;20782;-65
2024/04/19 08:11:08;;;;;;;2.50;1.60;;;8.60;1.00;;;;;;5525172;25;20229;-64
2024/04/19 08:13:58;;;;;;;5.13;1.37;;;7.70;1.00;;;;;;5531014;25;20611;-65
2024/04/19 08:16:50;;;;;;;4.57;2.50;;;7.60;1.00;;;;;;5518637;25;20234;-65
2024/04/19 08:19:39;;;;;;;3.57;1.43;;;7.70;1.00;;;;;;5540710;25;20229;-65
2024/04/19 08:22:28;;;;;;;3.10;1.47;;;7.90;1.00;;;;;;5541412;25;20554;-65
2024/04/19 08:25:18;;;;;;;3.33;2.07;;;8.30;1.00;;;;;;5533072;25;20577;-66
2024/04/19 08:28:08;;;;;;;6.90;2.10;;;8.30;1.00;;;;;;5524306;25;20299;-66
2024/04/19 08:30:57;;;;;;;7.97;1.50;;;8.20;1.00;;;;;;5536237;25;20300;-65
2024/04/19 08:33:49;;;;;;;4.23;2.10;;;7.70;1.00;;;;;;5548432;25;20219;-65
2024/04/19 08:36:38;;;;;;;3.10;1.20;;;7.60;1.00;;;;;;5536661;25;20320;-65
2024/04/19 08:39:28;;;;;;;1.80;1.00;;;7.50;1.00;;;;;;5550657;25;20628;-66
2024/04/19 08:42:17;;;;;;;4.03;1.57;;;7.30;1.00;;;;;;5532585;25;20315;-66
2024/04/19 08:45:08;;;;;;;3.73;1.60;;;7.10;1.00;;;;;;5520858;25;20671;-65
2024/04/19 08:47:58;;;;;;;4.17;2.10;;;7.20;1.00;;;;;;5542254;25;20237;-65
2024/04/19 08:50:50;;;;;;;4.10;2.00;;;7.20;1.00;;;;;;5526950;25;20227;-65
2024/04/19 08:53:39;;;;;;;3.90;1.30;;;7.20;1.00;;;;;;5534054;25;20604;-65
2024/04/19 08:56:28;;;;;;;2.13;1.27;;;7.10;1.00;;;;;;5535366;25;20226;-65
2024/04/19 08:59:18;;;;;;;2.37;1.00;;;7.10;1.00;;;;;;5533532;25;20332;-66
2024/04/19 09:02:08;;;;;;;8.47;1.20;;;7.10;1.00;;;;;;5534444;25;20275;-67
2024/04/19 09:04:59;;;;;;;4.00;1.80;;;7.20;1.00;;;;;;5533406;25;20234;-65
2024/04/19 09:07:51;;;;;;;4.57;1.73;;;7.20;1.00;;;;;;5530453;25;20230;-64
2024/04/19 09:10:40;;;;;;;2.93;1.77;;;7.40;1.00;;;;;;5535225;25;20544;-65
2024/04/19 09:13:29;;;;;;;3.53;1.40;;;8.20;1.00;;;;;;5530393;25;20659;-66
2024/04/19 09:16:19;;;;;;;3.20;1.80;;;8.80;1.00;;;;;;5535801;25;20222;-65
2024/04/19 09:19:09;;;;;;;4.03;1.87;;;9.20;1.00;;;;;;5531767;25;20635;-65
2024/04/19 09:22:00;;;;;;;2.57;1.07;;;9.00;1.00;;;;;;5532966;25;20273;-65
2024/04/19 09:24:54;;;;;;;3.57;2.03;;;9.10;1.00;;;;;;5539046;25;20266;-65
2024/04/19 09:27:43;;;;;;;4.30;2.23;;;8.90;1.00;;;;;;5544156;25;20284;-65
2024/04/19 09:30:32;;;;;;;1.67;1.13;;;8.50;1.00;;;;;;5542946;25;20717;-65
2024/04/19 09:33:22;;;;;;;2.93;1.57;;;9.10;1.00;;;;;;5521629;25;20235;-65
2024/04/19 09:36:11;;;;;;;1.50;1.20;;;9.80;1.00;;;;;;5538366;25;20239;-64
2024/04/19 09:39:00;;;;;;;2.93;1.40;;;9.10;1.00;;;;;;5557697;25;20275;-64
2024/04/19 09:41:52;;;;;;;2.30;1.50;;;9.00;1.00;;;;;;5541816;25;20330;-65
2024/04/19 09:44:42;;;;;;;2.33;1.47;;;9.00;1.00;;;;;;5541493;25;20266;-65
2024/04/19 09:47:32;;;;;;;2.87;1.53;;;9.40;1.00;;;;;;5552471;25;20238;-65
2024/04/19 09:50:22;;;;;;;4.13;1.57;;;9.60;1.00;;;;;;5554868;25;20221;-65
2024/04/19 09:53:13;;;;;;;2.87;1.63;;;9.10;1.00;;;;;;5542600;25;20237;-65
2024/04/19 09:56:08;;;;;;;2.03;1.73;;;8.80;1.00;;;;;;5566105;25;20615;-65
2024/04/19 09:59:01;;;;;;;1.97;1.33;;;8.70;1.00;;;;;;5538665;25;20225;-65
2024/04/19 10:01:51;;;;;;;4.13;2.17;;;8.50;1.00;;;;;;5526126;25;20235;-65
2024/04/19 10:04:40;;;;;;;3.43;1.97;;;8.60;1.00;;;;;;5556015;25;20809;-65
2024/04/19 10:07:30;;;;;;;2.40;1.73;;;8.60;1.00;;;;;;5536710;25;20378;-65
2024/04/19 10:10:19;;;;;;;6.03;2.47;;;8.60;1.00;;;;;;5543057;25;20879;-65
2024/04/19 10:13:09;;;;;;;6.73;2.13;;;8.50;1.00;;;;;;5542014;25;20232;-65
2024/04/19 10:16:02;;;;;;;1.53;1.30;;;8.70;1.00;;;;;;5535951;25;20223;-65
2024/04/19 10:18:51;;;;;;;8.17;2.77;;;9.10;1.00;;;;;;5553944;25;20616;-66
2024/04/19 10:21:40;;;;;;;3.30;1.87;;;9.30;1.00;;;;;;5550248;25;20336;-65
2024/04/19 10:24:32;;;;;;;9.33;2.50;;;9.20;1.00;;;;;;5537929;25;20228;-64
2024/04/19 10:27:22;;;;;;;3.67;1.70;;;9.00;1.00;;;;;;5538927;25;20762;-65
2024/04/19 10:30:12;;;;;;;4.70;2.33;;;9.70;1.00;;;;;;5551081;25;20232;-65
2024/04/19 10:33:05;;;;;;;4.23;2.50;;;10.40;1.00;;;;;;5542622;25;20321;-65
2024/04/19 10:35:55;;;;;;;4.27;1.87;;;11.10;1.00;;;;;;5550358;25;20279;-65
2024/04/19 10:38:44;;;;;;;56.50;7.90;;;10.50;1.00;;;;;;5535757;25;20248;-65
2024/04/19 10:41:33;;;;;;;3.50;1.90;;;9.80;1.00;;;;;;5557885;25;20650;-64
2024/04/19 10:44:23;;;;;;;3.90;2.17;;;9.90;1.00;;;;;;5530607;25;20230;-65
2024/04/19 10:47:12;;;;;;;6.50;1.60;;;10.20;1.00;;;;;;5552674;25;20331;-64
2024/04/19 10:50:04;;;;;;;2.77;1.90;;;10.50;1.00;;;;;;5551292;25;20673;-64
2024/04/19 10:52:54;;;;;;;2.73;1.90;;;10.50;1.00;;;;;;5530011;25;20229;-65
2024/04/19 10:55:44;;;;;;;4.53;2.60;;;10.70;1.00;;;;;;5549510;25;20591;-65
2024/04/19 10:58:34;;;;;;;5.83;2.20;;;11.40;1.00;;;;;;5568747;25;20225;-65
2024/04/19 11:01:23;;;;;;;3.80;1.43;;;10.90;1.00;;;;;;5560302;25;20775;-64
2024/04/19 11:04:13;;;;;;;4.40;1.87;;;10.10;1.00;;;;;;5535258;25;20232;-65
2024/04/19 11:07:05;;;;;;;2.40;1.20;;;9.70;1.00;;;;;;5550867;25;20295;-64
2024/04/19 11:09:54;;;;;;;3.03;1.43;;;9.90;1.00;;;;;;5568606;25;20230;-65
2024/04/19 11:12:43;;;;;;;3.13;2.00;;;10.60;1.00;;;;;;5561057;25;20612;-65
2024/04/19 11:15:33;;;;;;;2.60;1.70;;;10.70;1.00;;;;;;5557882;25;20230;-65
2024/04/19 11:18:23;;;;;;;6.47;1.30;;;10.50;1.00;;;;;;5555268;25;20225;-64
2024/04/19 11:21:12;;;;;;;2.53;2.07;;;10.30;1.00;;;;;;5573172;25;20230;-66
2024/04/19 11:24:05;;;;;;;4.70;1.50;;;9.80;1.00;;;;;;5541790;25;20271;-65
2024/04/19 11:26:54;;;;;;;4.70;1.63;;;10.80;1.00;;;;;;5552785;25;20656;-65
2024/04/19 11:29:43;;;;;;;3.80;1.83;;;10.50;1.00;;;;;;5546276;25;20242;-64
2024/04/19 11:32:33;;;;;;;4.00;2.13;;;10.20;1.00;;;;;;5552085;25;20723;-65
2024/04/19 11:35:23;;;;;;;1.63;1.10;;;10.00;1.00;;;;;;5545029;25;20235;-65
2024/04/19 11:38:14;;;;;;;2.33;1.90;;;9.50;1.00;;;;;;5551659;25;20227;-65
2024/04/19 11:41:07;;;;;;;11.77;3.13;;;10.00;1.00;;;;;;5556461;25;20331;-65
2024/04/19 11:43:58;;;;;;;2.23;1.50;;;10.60;1.00;;;;;;5552261;25;20309;-64
2024/04/19 11:46:47;;;;;;;4.50;2.57;;;9.70;1.00;;;;;;5536388;25;20335;-65
2024/04/19 11:49:36;;;;;;;2.03;0.93;;;10.10;1.00;;;;;;5535384;25;20297;-65
2024/04/19 11:52:26;;;;;;;5.67;2.33;;;10.10;1.00;;;;;;5524928;25;20640;-65
2024/04/19 11:55:15;;;;;;;2.20;1.93;;;10.30;1.00;;;;;;5554549;25;20227;-65
2024/04/19 11:58:07;;;;;;;5.07;1.40;;;10.10;1.00;;;;;;5523556;25;20234;-64
2024/04/19 12:00:57;;;;;;;3.83;1.87;;;9.90;1.00;;;;;;5533394;25;20261;-65
2024/04/19 12:03:46;;;;;;;12.90;2.50;;;9.60;1.00;;;;;;5547582;25;20236;-65
2024/04/19 12:06:36;;;;;;;3.63;2.37;;;9.30;1.00;;;;;;5522172;25;20239;-65
2024/04/19 12:09:26;;;;;;;6.23;2.17;;;9.20;1.00;;;;;;5531041;25;20234;-64
2024/04/19 12:12:19;;;;;;;2.50;1.73;;;7.20;99.90;;;;;;5543268;25;20613;-66
2024/04/19 12:15:11;;;;;;;2.97;2.37;;;6.00;1.00;;;;;;5520380;25;20621;-64
2024/04/19 12:18:01;;;;;;;5.40;3.63;;;5.20;99.90;;;;;;5541091;25;20239;-66
2024/04/19 12:20:51;;;;;;;7.60;3.73;;;5.10;1.00;;;;;;5527016;25;20283;-65
2024/04/19 12:23:41;;;;;;;6.43;4.47;;;4.90;1.00;;;;;;5522565;25;20224;-65
2024/04/19 12:26:31;;;;;;;5.23;3.80;;;5.00;1.00;;;;;;5533568;25;20305;-65
2024/04/19 12:29:20;;;;;;;5.77;3.93;;;5.20;34.30;;;;;;5514650;25;20304;-65
2024/04/19 12:32:13;;;;;;;4.97;4.00;;;5.50;99.90;;;;;;5514475;25;20323;-65
2024/04/19 12:35:02;;;;;;;6.80;4.40;;;6.30;1.00;;;;;;5530612;25;20283;-65
2024/04/19 12:37:52;;;;;;;6.23;4.10;;;7.20;99.90;;;;;;5534700;25;20615;-65
2024/04/19 12:40:41;;;;;;;5.67;3.77;;;7.70;15.80;;;;;;5517860;25;20230;-65
2024/04/19 12:43:30;;;;;;;7.73;4.43;;;7.70;1.00;;;;;;5528271;25;20277;-65
2024/04/19 12:46:20;;;;;;;5.30;3.50;;;8.40;1.00;;;;;;5546830;25;20233;-65
2024/04/19 12:49:15;;;;;;;6.53;3.80;;;8.60;1.00;;;;;;5522265;25;20224;-64
2024/04/19 12:52:04;;;;;;;9.57;3.00;;;9.40;1.00;;;;;;5536164;25;20718;-65
2024/04/19 12:54:54;;;;;;;4.73;2.43;;;9.80;99.90;;;;;;5517464;25;20227;-64
2024/04/19 12:57:43;;;;;;;2.80;1.93;;;9.70;1.00;;;;;;5527474;25;20286;-65
2024/04/19 13:00:32;;;;;;;4.37;2.70;;;9.40;9.80;;;;;;5533732;25;20266;-65
2024/04/19 13:03:24;;;;;;;6.73;2.80;;;9.30;53.30;;;;;;5537068;25;20741;-65
2024/04/19 13:06:16;;;;;;;7.30;3.07;;;9.80;1.00;;;;;;5546838;25;20274;-65
2024/04/19 13:09:05;;;;;;;3.27;2.67;;;10.10;1.00;;;;;;5544662;25;20223;-65
2024/04/19 13:11:55;;;;;;;6.40;3.43;;;10.40;1.00;;;;;;5547795;25;20618;-65
2024/04/19 13:14:44;;;;;;;1.67;1.23;;;10.70;1.00;;;;;;5550528;25;20288;-65
2024/04/19 13:17:37;;;;;;;3.93;1.57;;;9.90;1.00;;;;;;5520945;25;20228;-65
2024/04/19 13:20:26;;;;;;;6.60;3.33;;;9.90;1.00;;;;;;5528485;25;20693;-67
2024/04/19 13:23:18;;;;;;;6.03;2.53;;;10.20;1.00;;;;;;5541248;25;20232;-65
2024/04/19 13:26:07;;;;;;;4.63;2.43;;;10.60;1.00;;;;;;5523999;25;20719;-65
2024/04/19 13:28:57;;;;;;;8.27;3.37;;;10.10;1.00;;;;;;5535154;25;20349;-66
2024/04/19 13:31:49;;;;;;;7.83;4.00;;;10.00;1.00;;;;;;5558879;25;20334;-65
2024/04/19 13:34:38;;;;;;;6.30;3.17;;;9.70;1.00;;;;;;5538184;25;20226;-66
2024/04/19 13:37:27;;;;;;;8.27;2.93;;;9.70;1.00;;;;;;5545029;25;20811;-65
2024/04/19 13:40:19;;;;;;;5.00;3.03;;;9.60;1.00;;;;;;5538088;25;20231;-65
2024/04/19 13:43:09;;;;;;;4.20;2.80;;;9.60;1.00;;;;;;5527402;25;20286;-65
2024/04/19 13:45:58;;;;;;;8.50;3.57;;;9.50;1.00;;;;;;5528801;25;20236;-65
2024/04/19 13:48:47;;;;;;;9.27;3.77;;;10.00;1.00;;;;;;5539270;25;20330;-66
2024/04/19 13:51:37;;;;;;;8.67;3.33;;;10.40;1.00;;;;;;5546727;25;20283;-65
2024/04/19 13:54:26;;;;;;;9.27;2.97;;;10.70;1.00;;;;;;5539409;25;20233;-66
2024/04/19 13:57:20;;;;;;;4.43;2.10;;;10.60;1.00;;;;;;5548172;25;20227;-66
2024/04/19 14:00:11;;;;;;;4.57;1.67;;;10.40;1.00;;;;;;5546744;25;20225;-65
2024/04/19 14:03:00;;;;;;;2.57;1.83;;;10.30;1.00;;;;;;5538903;25;20238;-65
2024/04/19 14:05:50;;;;;;;5.13;2.20;;;10.00;1.00;;;;;;5540291;25;20232;-65
2024/04/19 14:08:39;;;;;;;9.50;2.00;;;9.90;1.00;;;;;;5530437;25;20813;-65
2024/04/19 14:11:28;;;;;;;2.73;1.87;;;10.10;1.00;;;;;;5538677;25;20565;-65
2024/04/19 14:14:20;;;;;;;3.63;1.97;;;10.10;1.00;;;;;;5542008;25;20223;-65
2024/04/19 14:17:10;;;;;;;1.83;1.60;;;10.10;1.00;;;;;;5550819;25;20300;-65
2024/04/19 14:20:00;;;;;;;5.13;1.80;;;9.80;1.00;;;;;;5545104;25;20297;-66
2024/04/19 14:22:49;;;;;;;2.83;1.80;;;9.80;1.00;;;;;;5559288;25;20273;-66
2024/04/19 14:25:40;;;;;;;4.67;2.07;;;9.60;1.00;;;;;;5561179;25;20616;-66
2024/04/19 14:28:30;;;;;;;6.40;1.27;;;9.70;1.00;;;;;;5546684;25;20238;-65
2024/04/19 14:31:22;;;;;;;2.80;1.60;;;10.00;1.00;;;;;;5554766;25;20227;-64
2024/04/19 14:34:11;;;;;;;2.30;1.37;;;10.10;1.00;;;;;;5541494;25;20222;-65
2024/04/19 14:37:00;;;;;;;5.17;1.30;;;9.90;1.00;;;;;;5560901;25;21031;-65
2024/04/19 14:39:50;;;;;;;1.40;1.03;;;9.90;1.00;;;;;;5549176;25;20788;-65
2024/04/19 14:42:39;;;;;;;4.80;1.90;;;10.40;1.00;;;;;;5530451;25;20235;-65
2024/04/19 14:45:28;;;;;;;1.40;1.07;;;10.30;1.00;;;;;;5558509;25;20286;-65
2024/04/19 14:48:20;;;;;;;3.47;1.53;;;10.10;1.00;;;;;;5535150;25;20236;-65
2024/04/19 14:51:10;;;;;;;1.83;1.47;;;10.10;1.00;;;;;;5530583;25;20239;-64
2024/04/19 14:54:00;;;;;;;3.20;1.70;;;9.90;1.00;;;;;;5522360;25;20289;-65
2024/04/19 14:56:49;;;;;;;3.47;0.97;;;9.90;1.00;;;;;;5568504;25;20283;-64
2024/04/19 14:59:38;;;;;;;2.30;1.17;;;9.70;1.00;;;;;;5549546;25;20270;-65